METAR stanice u blizini

 

LYBE - Beograd / Surčin, Srbija
Ažurirano: 01/03/2021 16:00
Vedro
Vedro
 Pravac vetra SSI
Vetar: SSI 15 km/h
Temperatura: 11°C
Tačka rose: -1°C
Vlažnost: 44%
Pritisak: 1031 hPa
Pregled: Vedro
Vidljivost: greater than 10 km
2021/03/01 15:00 LYBE 011500Z 02008KT 340V050 CAVOK 11/M01 Q1031 NOSIG
LYBT - Beograd / Batajnica, Srbija
Ažurirano: 01/03/2021 16:00
Vedro
Vedro
 Pravac vetra SSZ
Vetar: SSZ 15 km/h
Temperatura: 11°C
Tačka rose: 0°C
Vlažnost: 47%
Pritisak: 1031 hPa
Pregled: Vedro
Vidljivost: greater than 10 km
2021/03/01 15:00 LYBT 011500Z 33008KT CAVOK 11/M00 Q1031 NOSIG
LYVR - Vršac, Srbija
Ažurirano: 01/03/2021 16:00
Vedro
Vedro
 Pravac vetra varies
Vetar: varies 11 km/h
Temperatura: 11°C
Tačka rose: 0°C
Vlažnost: 47%
Pritisak: 1031 hPa
Pregled: Vedro
Vidljivost: greater than 10 km
2021/03/01 15:00 LYVR 011500Z VRB06KT CAVOK 11/00 Q1031
 
LYKV - Lađevci, Srbija
Ažurirano: 01/03/2021 16:00
Vedro
Vedro
 Pravac vetra SZ
Vetar: SZ 19 km/h
Temperatura: 11°C
Tačka rose: -1°C
Vlažnost: 44%
Pritisak: 1030 hPa
Pregled: Vedro
Vidljivost: greater than 10 km
2021/03/01 15:00 LYKV 011500Z 31010KT CAVOK 11/M01 Q1030 NOSIG
LYNI - Niš, Srbija
Ažurirano: 01/03/2021 16:00
Few Clouds
Few Clouds
 Pravac vetra SZ
Vetar: SZ 26 km/h
Temperatura: 11°C
Tačka rose: -4°C
Vlažnost: 35%
Pritisak: 1029 hPa
Oblaci: Few Clouds
Vidljivost: 10 km
Cloud details: Few Clouds 1524 m
2021/03/01 15:00 LYNI 011500Z 32014KT 9999 FEW050 11/M04 Q1029 NOSIG
BKPR - Priština, Srbija
Ažurirano: 01/03/2021 16:30
Partly Cloudy
Partly Cloudy
 Pravac vetra SSI
Vetar: SSI 24 km/h
Temperatura: 9°C
Osećaj hladnoće: 6°C
Tačka rose: -5°C
Vlažnost: 37%
Pritisak: 1027 hPa
Oblaci: Partly Cloudy
Vidljivost: 10 km
Cloud details: Partly Cloudy 2134 m
2021/03/01 15:30 BKPR 011530Z 03013KT 9999 SCT070 09/M05 Q1027 NOSIG RMK 17010095
 
LHPP - Pecs / Pogany, Hungary
Ažurirano: 01/03/2021 16:15
Few Clouds
Few Clouds
 Pravac vetra SI
Vetar: SI 15 km/h
Temperatura: 11°C
Tačka rose: 0°C
Vlažnost: 47%
Pritisak: 1032 hPa
Oblaci: Few Clouds
Vidljivost: 10 km
Cloud details: Few Clouds 1311 m
2021/03/01 15:15 LHPP 011515Z 04008KT 9999 FEW043 11/00 Q1032
LHUD - Szeged, Hungary
Ažurirano: 04/07/2019 01:45
NOT Current
Vedro
Vedro
 Pravac vetra S
Vetar: S 7 km/h
Temperatura: 18°C
Tačka rose: 13°C
Vlažnost: 73%
Pritisak: 1019 hPa
Pregled: Vedro
Vidljivost: greater than 10 km
2019/07/03 23:45 LHUD 032345Z 35004KT CAVOK 18/13 Q1019
LRTR - Timisoara, Romania
Ažurirano: 01/03/2021 16:00
Partly Cloudy
Partly Cloudy
 Pravac vetra S
Vetar: S 9 km/h
Temperatura: 11°C
Tačka rose: 2°C
Vlažnost: 54%
Pritisak: 1031 hPa
Oblaci: Partly Cloudy
Vidljivost: 10 km
Cloud details: Partly Cloudy 1372 m
2021/03/01 15:00 LRTR 011500Z 36005KT 330V030 9999 SCT045 11/02 Q1031
 
LRCV - Craiova, Romania
Ažurirano: 01/03/2021 16:00
Vedro
Vedro
 Pravac vetra JJI
Vetar: JJI 13 km/h
Temperatura: 10°C
Osećaj hladnoće: 8°C
Tačka rose: -1°C
Vlažnost: 47%
Pritisak: 1029 hPa
Pregled: Vedro
Vidljivost: greater than 10 km
2021/03/01 15:00 LRCV 011500Z 15007KT CAVOK 10/M01 Q1029
LBSF - Sofia, Bulgaria
Ažurirano: 01/03/2021 16:30
Oblačno
Oblačno
 Pravac vetra ISI
Vetar: ISI 15 km/h
Temperatura: 6°C
Osećaj hladnoće: 3°C
Tačka rose: -2°C
Vlažnost: 57%
Pritisak: 1028 hPa
Oblaci: Oblačno
Vidljivost: 10 km
Cloud details: Mostly Cloudy 1372 m
Oblačno 1615 m
2021/03/01 15:30 LBSF 011530Z 06008KT 9999 BKN045 OVC053 06/M02 Q1028 TEMPO RA
LWSK - Skoplje, Makedonija
Ažurirano: 01/03/2021 16:00
Vedro
Vedro
 Pravac vetra S
Vetar: S 28 km/h
Temperatura: 12°C
Tačka rose: -3°C
Vlažnost: 35%
Pritisak: 1027 hPa
Pregled: Vedro
Vidljivost: greater than 10 km
2021/03/01 15:00 LWSK 011500Z 36015KT CAVOK 12/M03 Q1027 NOSIG
 
LYPG - Podgorica, Crna Gora
Ažurirano: 01/03/2021 16:00
Vedro
Vedro
 Pravac vetra JJI
Vetar: JJI 9 km/h
Temperatura: 16°C
Tačka rose: -7°C
Vlažnost: 20%
Pritisak: 1025 hPa
Pregled: Vedro
Vidljivost: greater than 10 km
2021/03/01 15:00 LYPG 011500Z 16005KT 140V230 CAVOK 16/M07 Q1025 NOSIG
LQSA - Sarajevo, Bosna i Hercegovina
Ažurirano: 01/03/2021 16:00
Few Clouds
Few Clouds
 Pravac vetra SZ
Vetar: SZ 13 km/h
Temperatura: 12°C
Tačka rose: -2°C
Vlažnost: 38%
Pritisak: 1028 hPa
Oblaci: Few Clouds
Vidljivost: 10 km
Cloud details: Few Clouds 1524 m
2021/03/01 15:00 LQSA 011500Z 31007KT 270V340 9999 FEW050 12/M02 Q1028 NOSIG
LDOS - Osijek, Hrvatksa
Ažurirano: 01/03/2021 16:30
Few Clouds
Few Clouds
 Pravac vetra SI
Vetar: SI 20 km/h
Temperatura: 12°C
Tačka rose: 1°C
Vlažnost: 47%
Pritisak: 1031 hPa
Oblaci: Few Clouds
Vidljivost: 10 km
Cloud details: Few Clouds 1311 m
2021/03/01 15:30 LDOS 011530Z 05011KT 9999 FEW043 12/01 Q1031